Sobolevo, Russia
Current Conditions -  °F | °C
As of 7:00 AM on Saturday 22 Nov 2014 (Local Time) from UHPP Reporting Station
Clear Clear  
Wind Chill:   Ceiling: Unl
Heat Index: 14°   Visibility: 6mi
Dew Point:   Wind: 7mph
Humidity: 79%   Direction: 360°N
Pressure: 29.94"   Gusts: NA
Location:  54.27°N, 155.92°E
Report Text: UHPP 211900Z 36003MPS 9999 NSC M10/M13 Q1014 NOSIG RMKQFE757/1010 SC070
Loading
Personal Weather Stations






























Interactive Weather Map New forecast layout! Learn more

10-Day Weather Forecast

Advertisements
Track Severe Weather on mobile